sensor_id;sensor_type;location;lat;lon;timestamp;P1;durP1;ratioP1;P2;durP2;ratioP2
40489;SDS011;26196;52.302;10.572;2022-08-01T00:03:45;2.15;;;1.67;;
40489;SDS011;26196;52.302;10.572;2022-08-01T00:07:45;3.03;;;1.65;;
40489;SDS011;26196;52.302;10.572;2022-08-01T00:11:46;3.67;;;1.70;;
40489;SDS011;26196;52.302;10.572;2022-08-01T00:15:46;2.13;;;1.27;;
40489;SDS011;26196;52.302;10.572;2022-08-01T00:19:47;2.20;;;1.60;;
40489;SDS011;26196;52.302;10.572;2022-08-01T00:23:47;2.97;;;1.00;;
40489;SDS011;26196;52.302;10.572;2022-08-01T00:27:48;1.90;;;1.35;;
40489;SDS011;26196;52.302;10.572;2022-08-01T00:31:49;2.20;;;1.35;;
40489;SDS011;26196;52.302;10.572;2022-08-01T00:35:49;2.53;;;1.80;;
40489;SDS011;26196;52.302;10.572;2022-08-01T00:39:50;1.40;;;1.27;;
40489;SDS011;26196;52.302;10.572;2022-08-01T00:43:50;4.07;;;1.38;;
40489;SDS011;26196;52.302;10.572;2022-08-01T00:47:51;2.42;;;1.77;;
40489;SDS011;26196;52.302;10.572;2022-08-01T00:51:51;2.55;;;1.40;;
40489;SDS011;26196;52.302;10.572;2022-08-01T00:55:52;2.28;;;1.45;;
40489;SDS011;26196;52.302;10.572;2022-08-01T00:59:53;2.05;;;1.65;;
40489;SDS011;26196;52.302;10.572;2022-08-01T01:03:53;3.33;;;1.45;;
40489;SDS011;26196;52.302;10.572;2022-08-01T01:08:05;1.42;;;1.30;;
40489;SDS011;26196;52.302;10.572;2022-08-01T01:16:31;1.70;;;1.48;;
40489;SDS011;26196;52.302;10.572;2022-08-01T01:20:40;1.95;;;1.50;;
40489;SDS011;26196;52.302;10.572;2022-08-01T01:24:56;1.67;;;1.17;;
40489;SDS011;26196;52.302;10.572;2022-08-01T01:29:11;1.92;;;1.55;;
40489;SDS011;26196;52.302;10.572;2022-08-01T01:33:16;3.60;;;1.67;;
40489;SDS011;26196;52.302;10.572;2022-08-01T01:37:20;4.15;;;1.48;;
40489;SDS011;26196;52.302;10.572;2022-08-01T01:41:23;4.07;;;1.73;;
40489;SDS011;26196;52.302;10.572;2022-08-01T01:45:24;2.78;;;1.60;;
40489;SDS011;26196;52.302;10.572;2022-08-01T01:49:27;1.70;;;1.58;;
40489;SDS011;26196;52.302;10.572;2022-08-01T01:53:28;4.80;;;1.88;;
40489;SDS011;26196;52.302;10.572;2022-08-01T01:57:31;1.90;;;1.65;;
40489;SDS011;26196;52.302;10.572;2022-08-01T02:01:35;3.08;;;1.40;;
40489;SDS011;26196;52.302;10.572;2022-08-01T02:05:36;2.25;;;1.70;;
40489;SDS011;26196;52.302;10.572;2022-08-01T02:09:39;2.05;;;1.40;;
40489;SDS011;26196;52.302;10.572;2022-08-01T02:13:42;1.58;;;1.15;;
40489;SDS011;26196;52.302;10.572;2022-08-01T02:17:46;3.72;;;1.42;;
40489;SDS011;26196;52.302;10.572;2022-08-01T02:21:52;2.22;;;1.40;;
40489;SDS011;26196;52.302;10.572;2022-08-01T02:25:57;4.82;;;1.75;;
40489;SDS011;26196;52.302;10.572;2022-08-01T02:30:04;4.40;;;1.50;;
40489;SDS011;26196;52.302;10.572;2022-08-01T02:34:08;3.63;;;1.83;;
40489;SDS011;26196;52.302;10.572;2022-08-01T02:38:10;2.35;;;1.42;;
40489;SDS011;26196;52.302;10.572;2022-08-01T02:42:13;3.45;;;1.63;;
40489;SDS011;26196;52.302;10.572;2022-08-01T02:46:22;3.22;;;1.30;;
40489;SDS011;26196;52.302;10.572;2022-08-01T02:50:32;3.30;;;2.05;;
40489;SDS011;26196;52.302;10.572;2022-08-01T02:54:34;4.50;;;1.55;;
40489;SDS011;26196;52.302;10.572;2022-08-01T02:58:36;2.65;;;1.75;;
40489;SDS011;26196;52.302;10.572;2022-08-01T03:02:39;2.13;;;1.60;;
40489;SDS011;26196;52.302;10.572;2022-08-01T03:06:40;3.88;;;1.60;;
40489;SDS011;26196;52.302;10.572;2022-08-01T03:10:42;2.67;;;2.13;;
40489;SDS011;26196;52.302;10.572;2022-08-01T03:14:44;4.07;;;1.73;;
40489;SDS011;26196;52.302;10.572;2022-08-01T03:18:47;6.00;;;1.70;;
40489;SDS011;26196;52.302;10.572;2022-08-01T03:22:49;2.28;;;1.85;;
40489;SDS011;26196;52.302;10.572;2022-08-01T03:26:52;4.03;;;1.70;;
40489;SDS011;26196;52.302;10.572;2022-08-01T03:30:56;2.95;;;1.40;;
40489;SDS011;26196;52.302;10.572;2022-08-01T03:34:59;2.15;;;1.38;;
40489;SDS011;26196;52.302;10.572;2022-08-01T03:39:01;1.70;;;1.10;;
40489;SDS011;26196;52.302;10.572;2022-08-01T03:43:04;1.75;;;1.38;;
40489;SDS011;26196;52.302;10.572;2022-08-01T03:47:08;4.03;;;1.13;;
40489;SDS011;26196;52.302;10.572;2022-08-01T03:51:09;1.38;;;0.95;;
40489;SDS011;26196;52.302;10.572;2022-08-01T03:55:12;4.05;;;1.50;;
40489;SDS011;26196;52.302;10.572;2022-08-01T03:59:17;2.85;;;1.10;;
40489;SDS011;26196;52.302;10.572;2022-08-01T04:03:19;2.80;;;1.48;;
40489;SDS011;26196;52.302;10.572;2022-08-01T04:07:29;2.17;;;1.20;;
40489;SDS011;26196;52.302;10.572;2022-08-01T04:11:32;1.65;;;1.08;;
40489;SDS011;26196;52.302;10.572;2022-08-01T04:15:34;1.20;;;1.10;;
40489;SDS011;26196;52.302;10.572;2022-08-01T04:19:34;3.05;;;1.38;;
40489;SDS011;26196;52.302;10.572;2022-08-01T04:23:35;3.60;;;1.48;;
40489;SDS011;26196;52.302;10.572;2022-08-01T04:27:36;6.68;;;1.65;;
40489;SDS011;26196;52.302;10.572;2022-08-01T04:31:41;3.92;;;1.20;;
40489;SDS011;26196;52.302;10.572;2022-08-01T04:35:44;2.60;;;1.45;;
40489;SDS011;26196;52.302;10.572;2022-08-01T04:39:46;1.65;;;1.38;;
40489;SDS011;26196;52.302;10.572;2022-08-01T04:43:48;1.90;;;1.10;;
40489;SDS011;26196;52.302;10.572;2022-08-01T04:47:49;2.13;;;1.38;;
40489;SDS011;26196;52.302;10.572;2022-08-01T04:51:51;1.95;;;1.35;;
40489;SDS011;26196;52.302;10.572;2022-08-01T04:55:57;2.95;;;1.42;;
40489;SDS011;26196;52.302;10.572;2022-08-01T04:59:58;5.53;;;1.58;;
40489;SDS011;26196;52.302;10.572;2022-08-01T05:03:58;2.47;;;1.75;;
40489;SDS011;26196;52.302;10.572;2022-08-01T05:07:59;2.25;;;1.60;;
40489;SDS011;26196;52.302;10.572;2022-08-01T05:12:00;5.53;;;1.88;;
40489;SDS011;26196;52.302;10.572;2022-08-01T05:16:01;4.57;;;1.30;;
40489;SDS011;26196;52.302;10.572;2022-08-01T05:20:03;3.05;;;1.75;;
40489;SDS011;26196;52.302;10.572;2022-08-01T05:24:06;2.58;;;1.52;;
40489;SDS011;26196;52.302;10.572;2022-08-01T05:28:06;2.22;;;1.38;;
40489;SDS011;26196;52.302;10.572;2022-08-01T05:32:07;3.60;;;1.40;;
40489;SDS011;26196;52.302;10.572;2022-08-01T05:36:08;3.53;;;1.40;;
40489;SDS011;26196;52.302;10.572;2022-08-01T05:40:08;1.73;;;1.30;;
40489;SDS011;26196;52.302;10.572;2022-08-01T05:44:09;1.50;;;1.40;;
40489;SDS011;26196;52.302;10.572;2022-08-01T05:48:09;1.65;;;1.30;;
40489;SDS011;26196;52.302;10.572;2022-08-01T05:52:10;2.85;;;1.70;;
40489;SDS011;26196;52.302;10.572;2022-08-01T05:56:11;2.05;;;1.63;;
40489;SDS011;26196;52.302;10.572;2022-08-01T06:00:11;4.50;;;1.90;;
40489;SDS011;26196;52.302;10.572;2022-08-01T06:04:14;6.32;;;3.40;;
40489;SDS011;26196;52.302;10.572;2022-08-01T06:08:15;2.30;;;2.10;;
40489;SDS011;26196;52.302;10.572;2022-08-01T06:12:15;2.28;;;1.85;;
40489;SDS011;26196;52.302;10.572;2022-08-01T06:16:16;3.03;;;2.13;;
40489;SDS011;26196;52.302;10.572;2022-08-01T06:20:16;4.40;;;2.25;;
40489;SDS011;26196;52.302;10.572;2022-08-01T06:24:17;4.25;;;2.28;;
40489;SDS011;26196;52.302;10.572;2022-08-01T06:28:17;3.70;;;2.25;;
40489;SDS011;26196;52.302;10.572;2022-08-01T06:32:18;3.63;;;3.03;;
40489;SDS011;26196;52.302;10.572;2022-08-01T06:36:18;3.72;;;3.33;;
40489;SDS011;26196;52.302;10.572;2022-08-01T06:40:19;4.68;;;3.03;;
40489;SDS011;26196;52.302;10.572;2022-08-01T06:44:20;3.45;;;2.70;;
40489;SDS011;26196;52.302;10.572;2022-08-01T06:48:20;6.75;;;3.30;;
40489;SDS011;26196;52.302;10.572;2022-08-01T06:52:21;5.53;;;2.63;;
40489;SDS011;26196;52.302;10.572;2022-08-01T06:56:21;4.43;;;2.45;;
40489;SDS011;26196;52.302;10.572;2022-08-01T07:00:23;3.83;;;2.35;;
40489;SDS011;26196;52.302;10.572;2022-08-01T07:04:24;5.40;;;2.80;;
40489;SDS011;26196;52.302;10.572;2022-08-01T07:08:25;4.20;;;2.30;;
40489;SDS011;26196;52.302;10.572;2022-08-01T07:12:26;5.60;;;2.20;;
40489;SDS011;26196;52.302;10.572;2022-08-01T07:16:26;6.93;;;2.20;;
40489;SDS011;26196;52.302;10.572;2022-08-01T07:20:27;4.85;;;2.20;;
40489;SDS011;26196;52.302;10.572;2022-08-01T07:24:27;5.35;;;2.03;;
40489;SDS011;26196;52.302;10.572;2022-08-01T07:28:29;3.05;;;1.67;;
40489;SDS011;26196;52.302;10.572;2022-08-01T07:32:30;4.38;;;1.70;;
40489;SDS011;26196;52.302;10.572;2022-08-01T07:36:31;5.80;;;2.03;;
40489;SDS011;26196;52.302;10.572;2022-08-01T07:40:31;2.03;;;1.33;;
40489;SDS011;26196;52.302;10.572;2022-08-01T07:44:32;2.28;;;1.58;;
40489;SDS011;26196;52.302;10.572;2022-08-01T07:48:33;1.92;;;1.52;;
40489;SDS011;26196;52.302;10.572;2022-08-01T07:52:33;1.70;;;1.25;;
40489;SDS011;26196;52.302;10.572;2022-08-01T07:56:34;11.30;;;2.20;;
40489;SDS011;26196;52.302;10.572;2022-08-01T08:00:34;2.35;;;1.30;;
40489;SDS011;26196;52.302;10.572;2022-08-01T08:04:35;2.65;;;1.33;;
40489;SDS011;26196;52.302;10.572;2022-08-01T08:08:35;2.63;;;1.13;;
40489;SDS011;26196;52.302;10.572;2022-08-01T08:12:36;3.47;;;1.00;;
40489;SDS011;26196;52.302;10.572;2022-08-01T08:16:37;0.88;;;0.70;;
40489;SDS011;26196;52.302;10.572;2022-08-01T08:20:37;1.30;;;0.60;;
40489;SDS011;26196;52.302;10.572;2022-08-01T08:24:38;1.85;;;0.70;;
40489;SDS011;26196;52.302;10.572;2022-08-01T08:28:38;1.10;;;0.70;;
40489;SDS011;26196;52.302;10.572;2022-08-01T08:32:39;0.88;;;0.60;;
40489;SDS011;26196;52.302;10.572;2022-08-01T08:36:41;1.52;;;0.80;;
40489;SDS011;26196;52.302;10.572;2022-08-01T08:40:41;1.30;;;0.80;;
40489;SDS011;26196;52.302;10.572;2022-08-01T08:44:42;0.85;;;0.60;;
40489;SDS011;26196;52.302;10.572;2022-08-01T08:48:42;1.65;;;0.63;;
40489;SDS011;26196;52.302;10.572;2022-08-01T08:52:44;1.85;;;0.60;;
40489;SDS011;26196;52.302;10.572;2022-08-01T08:56:46;0.98;;;0.65;;
40489;SDS011;26196;52.302;10.572;2022-08-01T09:00:47;0.50;;;0.47;;
40489;SDS011;26196;52.302;10.572;2022-08-01T09:04:48;2.78;;;0.65;;
40489;SDS011;26196;52.302;10.572;2022-08-01T09:08:49;3.58;;;0.73;;
40489;SDS011;26196;52.302;10.572;2022-08-01T09:13:06;2.03;;;0.65;;
40489;SDS011;26196;52.302;10.572;2022-08-01T09:17:11;0.70;;;0.52;;
40489;SDS011;26196;52.302;10.572;2022-08-01T09:21:16;1.85;;;0.60;;
40489;SDS011;26196;52.302;10.572;2022-08-01T09:25:18;3.60;;;0.80;;
40489;SDS011;26196;52.302;10.572;2022-08-01T09:29:20;2.63;;;1.10;;
40489;SDS011;26196;52.302;10.572;2022-08-01T09:33:23;1.85;;;0.80;;
40489;SDS011;26196;52.302;10.572;2022-08-01T09:37:29;5.32;;;1.40;;
40489;SDS011;26196;52.302;10.572;2022-08-01T09:41:30;2.20;;;0.60;;
40489;SDS011;26196;52.302;10.572;2022-08-01T09:45:32;1.23;;;0.70;;
40489;SDS011;26196;52.302;10.572;2022-08-01T09:49:34;0.98;;;0.50;;
40489;SDS011;26196;52.302;10.572;2022-08-01T09:53:40;1.58;;;0.55;;
40489;SDS011;26196;52.302;10.572;2022-08-01T10:01:54;3.97;;;0.80;;
40489;SDS011;26196;52.302;10.572;2022-08-01T10:05:55;7.38;;;1.15;;
40489;SDS011;26196;52.302;10.572;2022-08-01T10:10:12;4.35;;;0.47;;
40489;SDS011;26196;52.302;10.572;2022-08-01T10:14:15;2.03;;;0.60;;
40489;SDS011;26196;52.302;10.572;2022-08-01T10:18:19;3.35;;;0.60;;
40489;SDS011;26196;52.302;10.572;2022-08-01T10:22:22;1.10;;;0.60;;
40489;SDS011;26196;52.302;10.572;2022-08-01T10:26:25;5.53;;;0.95;;
40489;SDS011;26196;52.302;10.572;2022-08-01T10:30:29;3.40;;;0.65;;
40489;SDS011;26196;52.302;10.572;2022-08-01T10:34:30;5.07;;;0.68;;
40489;SDS011;26196;52.302;10.572;2022-08-01T10:38:31;1.67;;;0.60;;
40489;SDS011;26196;52.302;10.572;2022-08-01T10:42:32;2.35;;;0.55;;
40489;SDS011;26196;52.302;10.572;2022-08-01T10:46:37;1.75;;;0.73;;
40489;SDS011;26196;52.302;10.572;2022-08-01T10:50:43;1.30;;;0.60;;
40489;SDS011;26196;52.302;10.572;2022-08-01T10:54:46;5.45;;;0.75;;
40489;SDS011;26196;52.302;10.572;2022-08-01T10:58:47;7.32;;;1.42;;
40489;SDS011;26196;52.302;10.572;2022-08-01T11:02:58;4.90;;;0.68;;
40489;SDS011;26196;52.302;10.572;2022-08-01T11:11:07;1.48;;;0.40;;
40489;SDS011;26196;52.302;10.572;2022-08-01T11:19:09;10.23;;;1.15;;
40489;SDS011;26196;52.302;10.572;2022-08-01T11:27:16;3.60;;;0.90;;
40489;SDS011;26196;52.302;10.572;2022-08-01T11:35:23;13.38;;;0.68;;
40489;SDS011;26196;52.302;10.572;2022-08-01T11:39:26;1.52;;;0.30;;
40489;SDS011;26196;52.302;10.572;2022-08-01T11:43:27;1.27;;;0.40;;
40489;SDS011;26196;52.302;10.572;2022-08-01T11:47:47;2.80;;;0.43;;
40489;SDS011;26196;52.302;10.572;2022-08-01T11:51:53;1.05;;;0.40;;
40489;SDS011;26196;52.302;10.572;2022-08-01T11:55:57;4.00;;;0.75;;
40489;SDS011;26196;52.302;10.572;2022-08-01T11:59:59;3.47;;;0.73;;
40489;SDS011;26196;52.302;10.572;2022-08-01T12:03:59;1.63;;;0.40;;
40489;SDS011;26196;52.302;10.572;2022-08-01T12:08:00;1.00;;;0.50;;
40489;SDS011;26196;52.302;10.572;2022-08-01T12:12:01;3.80;;;0.50;;
40489;SDS011;26196;52.302;10.572;2022-08-01T12:16:06;1.13;;;0.40;;
40489;SDS011;26196;52.302;10.572;2022-08-01T12:20:08;3.92;;;0.52;;
40489;SDS011;26196;52.302;10.572;2022-08-01T12:24:11;5.53;;;1.02;;
40489;SDS011;26196;52.302;10.572;2022-08-01T12:28:11;7.38;;;1.50;;
40489;SDS011;26196;52.302;10.572;2022-08-01T12:32:23;7.40;;;1.48;;
40489;SDS011;26196;52.302;10.572;2022-08-01T12:36:32;1.95;;;0.65;;
40489;SDS011;26196;52.302;10.572;2022-08-01T12:40:36;2.10;;;0.90;;
40489;SDS011;26196;52.302;10.572;2022-08-01T12:44:42;8.05;;;1.30;;
40489;SDS011;26196;52.302;10.572;2022-08-01T12:48:44;9.02;;;2.10;;
40489;SDS011;26196;52.302;10.572;2022-08-01T12:52:45;4.75;;;1.60;;
40489;SDS011;26196;52.302;10.572;2022-08-01T12:56:47;3.45;;;0.98;;
40489;SDS011;26196;52.302;10.572;2022-08-01T13:00:49;2.38;;;0.80;;
40489;SDS011;26196;52.302;10.572;2022-08-01T13:04:50;5.82;;;2.30;;
40489;SDS011;26196;52.302;10.572;2022-08-01T13:08:51;7.18;;;0.90;;
40489;SDS011;26196;52.302;10.572;2022-08-01T13:12:52;3.55;;;0.82;;
40489;SDS011;26196;52.302;10.572;2022-08-01T13:16:56;3.13;;;0.52;;
40489;SDS011;26196;52.302;10.572;2022-08-01T13:25:20;3.45;;;0.73;;
40489;SDS011;26196;52.302;10.572;2022-08-01T13:29:22;4.85;;;1.10;;
40489;SDS011;26196;52.302;10.572;2022-08-01T13:33:44;2.28;;;0.70;;
40489;SDS011;26196;52.302;10.572;2022-08-01T13:37:47;4.15;;;0.95;;
40489;SDS011;26196;52.302;10.572;2022-08-01T13:41:48;3.88;;;0.80;;
40489;SDS011;26196;52.302;10.572;2022-08-01T13:45:49;5.88;;;0.63;;
40489;SDS011;26196;52.302;10.572;2022-08-01T13:49:49;6.63;;;0.90;;
40489;SDS011;26196;52.302;10.572;2022-08-01T13:53:49;5.57;;;0.85;;
40489;SDS011;26196;52.302;10.572;2022-08-01T13:57:50;2.25;;;0.80;;
40489;SDS011;26196;52.302;10.572;2022-08-01T14:01:51;1.70;;;0.75;;
40489;SDS011;26196;52.302;10.572;2022-08-01T14:05:51;6.68;;;1.27;;
40489;SDS011;26196;52.302;10.572;2022-08-01T14:09:52;4.90;;;1.63;;
40489;SDS011;26196;52.302;10.572;2022-08-01T14:13:52;1.27;;;0.80;;
40489;SDS011;26196;52.302;10.572;2022-08-01T14:17:53;1.63;;;0.80;;
40489;SDS011;26196;52.302;10.572;2022-08-01T14:21:53;3.42;;;1.05;;
40489;SDS011;26196;52.302;10.572;2022-08-01T14:25:54;3.42;;;1.02;;
40489;SDS011;26196;52.302;10.572;2022-08-01T14:29:54;4.53;;;1.30;;
40489;SDS011;26196;52.302;10.572;2022-08-01T14:33:55;1.58;;;0.82;;
40489;SDS011;26196;52.302;10.572;2022-08-01T14:37:55;5.90;;;0.93;;
40489;SDS011;26196;52.302;10.572;2022-08-01T14:41:56;6.25;;;1.15;;
40489;SDS011;26196;52.302;10.572;2022-08-01T14:45:56;3.08;;;1.00;;
40489;SDS011;26196;52.302;10.572;2022-08-01T14:49:57;3.45;;;1.27;;
40489;SDS011;26196;52.302;10.572;2022-08-01T14:53:57;8.27;;;1.60;;
40489;SDS011;26196;52.302;10.572;2022-08-01T14:57:57;3.15;;;1.23;;
40489;SDS011;26196;52.302;10.572;2022-08-01T15:01:58;5.38;;;1.42;;
40489;SDS011;26196;52.302;10.572;2022-08-01T15:05:58;7.90;;;1.23;;
40489;SDS011;26196;52.302;10.572;2022-08-01T15:09:59;4.53;;;1.17;;
40489;SDS011;26196;52.302;10.572;2022-08-01T15:14:00;4.25;;;1.05;;
40489;SDS011;26196;52.302;10.572;2022-08-01T15:18:19;3.70;;;0.95;;
40489;SDS011;26196;52.302;10.572;2022-08-01T15:22:20;2.25;;;0.90;;
40489;SDS011;26196;52.302;10.572;2022-08-01T15:26:21;6.20;;;1.65;;
40489;SDS011;26196;52.302;10.572;2022-08-01T15:30:22;2.80;;;1.17;;
40489;SDS011;26196;52.302;10.572;2022-08-01T15:34:22;3.03;;;0.95;;
40489;SDS011;26196;52.302;10.572;2022-08-01T15:38:23;8.10;;;1.88;;
40489;SDS011;26196;52.302;10.572;2022-08-01T15:42:23;6.03;;;1.10;;
40489;SDS011;26196;52.302;10.572;2022-08-01T15:46:24;7.88;;;1.48;;
40489;SDS011;26196;52.302;10.572;2022-08-01T15:50:24;5.18;;;1.58;;
40489;SDS011;26196;52.302;10.572;2022-08-01T15:54:25;7.35;;;1.45;;
40489;SDS011;26196;52.302;10.572;2022-08-01T15:58:25;4.93;;;1.20;;
40489;SDS011;26196;52.302;10.572;2022-08-01T16:02:26;5.75;;;1.75;;
40489;SDS011;26196;52.302;10.572;2022-08-01T16:06:26;4.40;;;1.50;;
40489;SDS011;26196;52.302;10.572;2022-08-01T16:10:28;3.13;;;1.25;;
40489;SDS011;26196;52.302;10.572;2022-08-01T16:14:29;4.60;;;1.20;;
40489;SDS011;26196;52.302;10.572;2022-08-01T16:18:30;6.07;;;1.38;;
40489;SDS011;26196;52.302;10.572;2022-08-01T16:22:30;12.65;;;2.75;;
40489;SDS011;26196;52.302;10.572;2022-08-01T16:26:31;3.40;;;1.38;;
40489;SDS011;26196;52.302;10.572;2022-08-01T16:30:31;6.35;;;2.08;;
40489;SDS011;26196;52.302;10.572;2022-08-01T16:34:32;10.07;;;2.65;;
40489;SDS011;26196;52.302;10.572;2022-08-01T16:38:34;8.13;;;1.88;;
40489;SDS011;26196;52.302;10.572;2022-08-01T16:42:35;5.05;;;1.48;;
40489;SDS011;26196;52.302;10.572;2022-08-01T16:46:36;4.15;;;1.17;;
40489;SDS011;26196;52.302;10.572;2022-08-01T16:50:36;3.72;;;1.67;;
40489;SDS011;26196;52.302;10.572;2022-08-01T16:54:36;8.38;;;1.90;;
40489;SDS011;26196;52.302;10.572;2022-08-01T16:58:37;5.57;;;1.42;;
40489;SDS011;26196;52.302;10.572;2022-08-01T17:02:38;3.28;;;1.85;;
40489;SDS011;26196;52.302;10.572;2022-08-01T17:06:39;3.63;;;1.42;;
40489;SDS011;26196;52.302;10.572;2022-08-01T17:10:39;2.00;;;1.30;;
40489;SDS011;26196;52.302;10.572;2022-08-01T17:14:40;2.90;;;1.33;;
40489;SDS011;26196;52.302;10.572;2022-08-01T17:18:41;2.88;;;1.15;;
40489;SDS011;26196;52.302;10.572;2022-08-01T17:22:41;5.93;;;1.60;;
40489;SDS011;26196;52.302;10.572;2022-08-01T17:26:42;3.75;;;1.40;;
40489;SDS011;26196;52.302;10.572;2022-08-01T17:30:44;6.63;;;1.25;;
40489;SDS011;26196;52.302;10.572;2022-08-01T17:34:44;6.60;;;1.65;;
40489;SDS011;26196;52.302;10.572;2022-08-01T17:38:44;7.18;;;1.70;;
40489;SDS011;26196;52.302;10.572;2022-08-01T17:42:45;4.15;;;1.45;;
40489;SDS011;26196;52.302;10.572;2022-08-01T17:46:45;5.78;;;1.88;;
40489;SDS011;26196;52.302;10.572;2022-08-01T17:50:46;4.72;;;1.40;;
40489;SDS011;26196;52.302;10.572;2022-08-01T17:54:48;7.68;;;1.40;;
40489;SDS011;26196;52.302;10.572;2022-08-01T17:58:48;8.00;;;3.03;;
40489;SDS011;26196;52.302;10.572;2022-08-01T18:02:49;4.82;;;1.38;;
40489;SDS011;26196;52.302;10.572;2022-08-01T18:06:49;6.13;;;1.52;;
40489;SDS011;26196;52.302;10.572;2022-08-01T18:10:51;5.45;;;1.38;;
40489;SDS011;26196;52.302;10.572;2022-08-01T18:14:54;6.47;;;2.38;;
40489;SDS011;26196;52.302;10.572;2022-08-01T18:18:54;8.15;;;1.58;;
40489;SDS011;26196;52.302;10.572;2022-08-01T18:22:55;5.95;;;1.55;;
40489;SDS011;26196;52.302;10.572;2022-08-01T18:26:55;5.53;;;0.90;;
40489;SDS011;26196;52.302;10.572;2022-08-01T18:30:57;6.45;;;1.10;;
40489;SDS011;26196;52.302;10.572;2022-08-01T18:34:59;5.40;;;1.98;;
40489;SDS011;26196;52.302;10.572;2022-08-01T18:39:01;7.05;;;1.65;;
40489;SDS011;26196;52.302;10.572;2022-08-01T18:43:04;11.50;;;2.22;;
40489;SDS011;26196;52.302;10.572;2022-08-01T18:47:05;3.42;;;0.90;;
40489;SDS011;26196;52.302;10.572;2022-08-01T18:51:05;5.32;;;1.20;;
40489;SDS011;26196;52.302;10.572;2022-08-01T18:55:07;5.97;;;1.50;;
40489;SDS011;26196;52.302;10.572;2022-08-01T18:59:08;12.90;;;1.63;;
40489;SDS011;26196;52.302;10.572;2022-08-01T19:03:08;5.18;;;1.58;;
40489;SDS011;26196;52.302;10.572;2022-08-01T19:07:09;5.90;;;1.50;;
40489;SDS011;26196;52.302;10.572;2022-08-01T19:11:10;6.47;;;1.10;;
40489;SDS011;26196;52.302;10.572;2022-08-01T19:15:10;8.25;;;1.20;;
40489;SDS011;26196;52.302;10.572;2022-08-01T19:19:11;4.45;;;1.65;;
40489;SDS011;26196;52.302;10.572;2022-08-01T19:23:11;4.40;;;1.08;;
40489;SDS011;26196;52.302;10.572;2022-08-01T19:27:30;7.40;;;1.08;;
40489;SDS011;26196;52.302;10.572;2022-08-01T19:31:34;6.20;;;1.13;;
40489;SDS011;26196;52.302;10.572;2022-08-01T19:35:39;7.37;;;1.70;;
40489;SDS011;26196;52.302;10.572;2022-08-01T19:39:42;7.40;;;1.50;;
40489;SDS011;26196;52.302;10.572;2022-08-01T19:43:44;4.28;;;1.15;;
40489;SDS011;26196;52.302;10.572;2022-08-01T19:47:46;5.60;;;1.10;;
40489;SDS011;26196;52.302;10.572;2022-08-01T19:51:48;8.23;;;1.50;;
40489;SDS011;26196;52.302;10.572;2022-08-01T19:55:49;4.57;;;1.13;;
40489;SDS011;26196;52.302;10.572;2022-08-01T19:59:51;9.10;;;1.50;;
40489;SDS011;26196;52.302;10.572;2022-08-01T20:03:54;8.38;;;1.50;;
40489;SDS011;26196;52.302;10.572;2022-08-01T20:07:56;9.63;;;1.08;;
40489;SDS011;26196;52.302;10.572;2022-08-01T20:11:57;6.97;;;1.50;;
40489;SDS011;26196;52.302;10.572;2022-08-01T20:15:58;6.05;;;1.13;;
40489;SDS011;26196;52.302;10.572;2022-08-01T20:19:59;7.05;;;1.75;;
40489;SDS011;26196;52.302;10.572;2022-08-01T20:24:00;13.05;;;1.85;;
40489;SDS011;26196;52.302;10.572;2022-08-01T20:28:02;18.17;;;2.30;;
40489;SDS011;26196;52.302;10.572;2022-08-01T20:32:04;14.18;;;2.83;;
40489;SDS011;26196;52.302;10.572;2022-08-01T20:36:07;10.90;;;1.33;;
40489;SDS011;26196;52.302;10.572;2022-08-01T20:40:07;9.32;;;1.45;;
40489;SDS011;26196;52.302;10.572;2022-08-01T20:44:10;12.82;;;1.15;;
40489;SDS011;26196;52.302;10.572;2022-08-01T20:48:14;10.90;;;1.58;;
40489;SDS011;26196;52.302;10.572;2022-08-01T20:52:16;8.68;;;1.52;;
40489;SDS011;26196;52.302;10.572;2022-08-01T21:00:55;11.18;;;1.45;;
40489;SDS011;26196;52.302;10.572;2022-08-01T21:05:07;11.40;;;1.25;;
40489;SDS011;26196;52.302;10.572;2022-08-01T21:09:10;7.50;;;1.38;;
40489;SDS011;26196;52.302;10.572;2022-08-01T21:13:18;8.13;;;1.70;;
40489;SDS011;26196;52.302;10.572;2022-08-01T21:17:36;8.13;;;2.33;;
40489;SDS011;26196;52.302;10.572;2022-08-01T21:22:04;8.30;;;1.83;;
40489;SDS011;26196;52.302;10.572;2022-08-01T21:26:11;5.82;;;1.10;;
40489;SDS011;26196;52.302;10.572;2022-08-01T21:30:12;6.35;;;1.73;;
40489;SDS011;26196;52.302;10.572;2022-08-01T21:34:12;7.72;;;1.70;;
40489;SDS011;26196;52.302;10.572;2022-08-01T21:38:15;6.95;;;1.13;;
40489;SDS011;26196;52.302;10.572;2022-08-01T21:42:18;10.05;;;1.35;;
40489;SDS011;26196;52.302;10.572;2022-08-01T21:46:19;4.22;;;1.60;;
40489;SDS011;26196;52.302;10.572;2022-08-01T21:50:20;2.40;;;1.20;;
40489;SDS011;26196;52.302;10.572;2022-08-01T21:54:38;5.00;;;1.23;;
40489;SDS011;26196;52.302;10.572;2022-08-01T22:03:25;3.75;;;1.20;;
40489;SDS011;26196;52.302;10.572;2022-08-01T22:11:45;5.97;;;0.95;;
40489;SDS011;26196;52.302;10.572;2022-08-01T22:15:47;2.60;;;1.02;;
40489;SDS011;26196;52.302;10.572;2022-08-01T22:19:48;3.60;;;1.63;;
40489;SDS011;26196;52.302;10.572;2022-08-01T22:23:53;2.42;;;1.08;;
40489;SDS011;26196;52.302;10.572;2022-08-01T22:27:53;4.47;;;1.00;;
40489;SDS011;26196;52.302;10.572;2022-08-01T22:31:55;4.75;;;1.20;;
40489;SDS011;26196;52.302;10.572;2022-08-01T22:35:56;4.60;;;1.40;;
40489;SDS011;26196;52.302;10.572;2022-08-01T22:40:02;2.17;;;1.00;;
40489;SDS011;26196;52.302;10.572;2022-08-01T22:44:09;2.67;;;1.00;;
40489;SDS011;26196;52.302;10.572;2022-08-01T22:48:17;3.28;;;0.80;;
40489;SDS011;26196;52.302;10.572;2022-08-01T22:52:40;1.38;;;0.63;;
40489;SDS011;26196;52.302;10.572;2022-08-01T22:56:49;2.65;;;0.80;;
40489;SDS011;26196;52.302;10.572;2022-08-01T23:00:54;5.80;;;1.55;;
40489;SDS011;26196;52.302;10.572;2022-08-01T23:05:00;1.92;;;1.38;;
40489;SDS011;26196;52.302;10.572;2022-08-01T23:09:03;1.40;;;0.98;;
40489;SDS011;26196;52.302;10.572;2022-08-01T23:13:04;3.15;;;1.02;;
40489;SDS011;26196;52.302;10.572;2022-08-01T23:17:05;3.90;;;1.02;;
40489;SDS011;26196;52.302;10.572;2022-08-01T23:21:09;2.15;;;0.80;;
40489;SDS011;26196;52.302;10.572;2022-08-01T23:25:14;2.40;;;0.80;;
40489;SDS011;26196;52.302;10.572;2022-08-01T23:29:15;4.00;;;1.10;;
40489;SDS011;26196;52.302;10.572;2022-08-01T23:33:15;1.73;;;0.63;;
40489;SDS011;26196;52.302;10.572;2022-08-01T23:37:16;1.67;;;0.77;;
40489;SDS011;26196;52.302;10.572;2022-08-01T23:41:16;2.28;;;1.08;;
40489;SDS011;26196;52.302;10.572;2022-08-01T23:45:18;1.73;;;0.68;;
40489;SDS011;26196;52.302;10.572;2022-08-01T23:49:19;3.60;;;1.45;;
40489;SDS011;26196;52.302;10.572;2022-08-01T23:53:19;6.18;;;1.30;;
40489;SDS011;26196;52.302;10.572;2022-08-01T23:57:20;4.57;;;0.95;;
